createdAt,value
2019-04-22T00:00:10.853Z,99.90
2019-04-22T00:02:50.533Z,99.90
2019-04-22T00:05:39.701Z,99.90
2019-04-22T00:08:19.714Z,99.90
2019-04-22T00:10:50.245Z,99.90
2019-04-22T00:13:29.180Z,99.90
2019-04-22T00:15:54.123Z,99.90
2019-04-22T00:18:40.586Z,99.90
2019-04-22T00:20:58.274Z,99.90
2019-04-22T00:23:31.055Z,99.90
2019-04-22T00:26:12.590Z,99.90
2019-04-22T00:28:43.848Z,99.90
2019-04-22T00:31:20.665Z,99.90
2019-04-22T00:33:58.895Z,99.90
2019-04-22T00:36:28.925Z,99.90
2019-04-22T00:39:07.089Z,99.90
2019-04-22T00:41:35.813Z,99.90
2019-04-22T00:44:15.310Z,99.90
2019-04-22T00:46:38.326Z,99.90
2019-04-22T00:50:01.987Z,99.90
2019-04-22T00:51:56.942Z,99.90
2019-04-22T00:54:21.544Z,99.90
2019-04-22T00:56:47.727Z,99.90
2019-04-22T00:59:23.346Z,99.90
2019-04-22T01:02:03.582Z,99.90
2019-04-22T01:04:34.566Z,99.90
2019-04-22T01:07:04.104Z,99.90
2019-04-22T01:09:40.092Z,99.90
2019-04-22T01:12:15.518Z,99.90
2019-04-22T01:14:41.655Z,99.90
2019-04-22T01:17:12.112Z,99.90
2019-04-22T01:19:52.621Z,99.90
2019-04-22T01:22:19.076Z,99.90
2019-04-22T01:24:50.275Z,99.90
2019-04-22T01:27:16.417Z,99.90
2019-04-22T01:29:46.594Z,99.90
2019-04-22T01:32:15.450Z,99.90
2019-04-22T01:34:56.558Z,99.90
2019-04-22T01:37:28.838Z,99.90
2019-04-22T01:40:09.740Z,99.90
2019-04-22T01:42:50.444Z,99.90
2019-04-22T01:45:17.801Z,99.90
2019-04-22T01:47:49.420Z,99.90
2019-04-22T01:50:23.913Z,99.90
2019-04-22T01:53:02.049Z,99.90
2019-04-22T01:55:32.414Z,99.90
2019-04-22T01:57:54.119Z,99.90
2019-04-22T02:00:35.972Z,99.90
2019-04-22T02:03:15.096Z,99.90
2019-04-22T02:05:44.019Z,99.90
2019-04-22T02:08:25.487Z,99.90
2019-04-22T02:10:49.231Z,99.90
2019-04-22T02:13:21.883Z,99.90
2019-04-22T02:15:52.465Z,99.90
2019-04-22T02:18:31.829Z,99.90
2019-04-22T02:20:54.861Z,99.90
2019-04-22T02:26:07.349Z,99.90
2019-04-22T02:34:09.631Z,99.90
2019-04-22T02:36:30.082Z,99.90
2019-04-22T02:44:08.345Z,99.90
2019-04-22T02:46:43.012Z,99.90
2019-04-22T02:59:14.216Z,99.90
2019-04-22T03:06:43.351Z,99.90
2019-04-22T03:09:33.697Z,99.90
2019-04-22T03:12:11.301Z,99.90
2019-04-22T03:14:37.152Z,99.90
2019-04-22T03:17:09.475Z,99.90
2019-04-22T03:22:16.264Z,99.90
2019-04-22T03:24:46.238Z,99.90
2019-04-22T03:27:16.966Z,99.90
2019-04-22T03:37:52.968Z,99.90
2019-04-22T03:40:30.739Z,99.90
2019-04-22T03:50:28.008Z,99.90
2019-04-22T03:53:09.790Z,99.90
2019-04-22T03:55:46.741Z,99.90
2019-04-22T04:03:11.768Z,99.90
2019-04-22T04:05:52.510Z,99.90
2019-04-22T04:08:27.755Z,99.90
2019-04-22T04:11:06.400Z,99.90
2019-04-22T04:13:28.517Z,99.90
2019-04-22T04:15:55.880Z,99.90
2019-04-22T04:18:41.093Z,99.90
2019-04-22T04:21:22.919Z,99.90
2019-04-22T04:23:55.904Z,99.90
2019-04-22T04:26:17.040Z,99.90
2019-04-22T04:31:25.601Z,99.90
2019-04-22T04:36:32.259Z,99.90
2019-04-22T04:41:38.996Z,99.90
2019-04-22T04:49:19.119Z,99.90
2019-04-22T04:54:28.810Z,99.90
2019-04-22T04:56:50.386Z,99.90
2019-04-22T04:59:30.366Z,99.90
2019-04-22T05:12:12.272Z,99.90
2019-04-22T05:14:42.348Z,99.90
2019-04-22T05:17:12.858Z,99.90
2019-04-22T05:19:32.431Z,99.90
2019-04-22T05:22:14.962Z,99.90
2019-04-22T05:24:59.933Z,99.90
2019-04-22T05:27:21.727Z,99.90
2019-04-22T05:30:00.424Z,99.90
2019-04-22T05:32:22.764Z,99.90
2019-04-22T05:34:48.560Z,99.90
2019-04-22T05:39:58.729Z,99.90
2019-04-22T05:42:28.459Z,99.90
2019-04-22T05:45:08.903Z,99.90
2019-04-22T05:47:34.077Z,99.90
2019-04-22T05:50:05.458Z,99.90
2019-04-22T05:52:40.525Z,99.90
2019-04-22T05:55:15.048Z,99.90
2019-04-22T05:57:50.995Z,99.90
2019-04-22T06:00:26.807Z,99.90
2019-04-22T06:02:56.816Z,99.90
2019-04-22T06:05:24.697Z,99.90
2019-04-22T06:08:02.375Z,99.90
2019-04-22T06:10:39.879Z,99.90
2019-04-22T06:13:06.592Z,99.90
2019-04-22T06:15:37.552Z,99.90
2019-04-22T06:23:34.636Z,99.90
2019-04-22T06:26:24.006Z,99.90
2019-04-22T06:28:40.597Z,99.90
2019-04-22T06:31:10.966Z,99.90
2019-04-22T06:33:43.983Z,99.90
2019-04-22T06:36:08.022Z,99.90
2019-04-22T06:38:46.217Z,99.90
2019-04-22T06:43:56.215Z,99.90
2019-04-22T06:46:22.444Z,99.90
2019-04-22T06:48:54.694Z,99.90
2019-04-22T06:51:31.000Z,99.90
2019-04-22T06:54:01.812Z,99.90
2019-04-22T06:56:33.039Z,99.90
2019-04-22T06:59:07.234Z,99.90
2019-04-22T07:02:00.437Z,99.90
2019-04-22T07:04:10.922Z,99.90
2019-04-22T07:06:48.736Z,99.90
2019-04-22T07:11:54.425Z,99.90
2019-04-22T07:14:18.657Z,99.90
2019-04-22T07:17:07.091Z,99.90
2019-04-22T07:19:28.858Z,99.90
2019-04-22T07:24:40.625Z,99.90
2019-04-22T07:27:08.154Z,99.90
2019-04-22T07:29:39.337Z,99.10
2019-04-22T07:32:40.105Z,97.20
2019-04-22T07:34:49.286Z,96.90
2019-04-22T07:37:28.275Z,96.40
2019-04-22T07:39:46.040Z,96.10
2019-04-22T07:42:28.236Z,94.80
2019-04-22T07:44:54.805Z,92.80
2019-04-22T07:49:59.420Z,91.10
2019-04-22T07:55:01.000Z,90.80
2019-04-22T08:02:51.572Z,85.50
2019-04-22T08:05:18.420Z,85.20
2019-04-22T08:07:57.285Z,81.70
2019-04-22T08:12:58.065Z,80.70
2019-04-22T08:15:27.596Z,78.30
2019-04-22T08:20:33.904Z,74.60
2019-04-22T08:23:09.155Z,74.70
2019-04-22T08:25:42.629Z,73.60
2019-04-22T08:28:17.562Z,73.80
2019-04-22T08:30:50.749Z,70.20
2019-04-22T08:33:22.048Z,69.90
2019-04-22T08:36:06.772Z,72.00
2019-04-22T08:38:36.788Z,69.40
2019-04-22T08:44:02.423Z,67.60
2019-04-22T08:46:33.105Z,66.40
2019-04-22T08:49:02.145Z,66.00
2019-04-22T08:51:40.339Z,63.20
2019-04-22T08:54:26.011Z,64.00
2019-04-22T08:56:56.948Z,61.20
2019-04-22T08:59:12.391Z,61.10
2019-04-22T09:01:47.225Z,59.70
2019-04-22T09:04:11.819Z,59.40
2019-04-22T09:09:26.663Z,58.30
2019-04-22T09:11:59.875Z,57.20
2019-04-22T09:14:37.888Z,57.50
2019-04-22T09:17:11.402Z,57.50
2019-04-22T09:19:38.821Z,55.90
2019-04-22T09:22:16.001Z,56.00
2019-04-22T09:24:45.976Z,56.90
2019-04-22T09:32:38.796Z,54.30
2019-04-22T09:34:51.754Z,54.70
2019-04-22T09:40:04.506Z,52.30
2019-04-22T09:42:31.835Z,53.00
2019-04-22T09:45:05.742Z,52.30
2019-04-22T09:47:40.045Z,51.90
2019-04-22T09:50:09.789Z,51.10
2019-04-22T09:52:42.086Z,50.20
2019-04-22T09:55:18.226Z,50.10
2019-04-22T09:57:46.060Z,49.60
2019-04-22T10:00:25.354Z,46.70
2019-04-22T10:05:28.565Z,40.10
2019-04-22T10:07:59.561Z,37.10
2019-04-22T10:10:37.985Z,33.00
2019-04-22T10:13:15.736Z,32.60
2019-04-22T10:15:39.611Z,30.90
2019-04-22T10:18:11.245Z,31.00
2019-04-22T10:20:45.973Z,30.50
2019-04-22T10:23:20.160Z,30.50
2019-04-22T10:25:53.709Z,30.40
2019-04-22T10:28:23.559Z,30.50
2019-04-22T10:30:57.541Z,29.80
2019-04-22T10:33:23.961Z,29.50
2019-04-22T10:35:37.306Z,29.50
2019-04-22T10:38:10.376Z,28.10
2019-04-22T10:40:42.718Z,27.80
2019-04-22T10:43:15.095Z,28.80
2019-04-22T10:45:46.246Z,27.40
2019-04-22T10:48:18.481Z,26.90
2019-04-22T10:50:50.607Z,26.90
2019-04-22T10:53:21.855Z,27.50
2019-04-22T10:55:54.237Z,26.80
2019-04-22T10:58:26.689Z,27.20
2019-04-22T11:00:58.283Z,27.20
2019-04-22T11:03:31.160Z,26.90
2019-04-22T11:06:05.450Z,26.50
2019-04-22T11:08:45.907Z,25.60
2019-04-22T11:11:21.530Z,25.90
2019-04-22T11:13:42.104Z,24.80
2019-04-22T11:16:13.852Z,25.30
2019-04-22T11:18:45.466Z,25.80
2019-04-22T11:21:17.816Z,25.70
2019-04-22T11:23:50.234Z,26.10
2019-04-22T11:26:21.946Z,25.00
2019-04-22T11:28:53.997Z,24.80
2019-04-22T11:31:26.434Z,24.90
2019-04-22T11:33:58.554Z,25.40
2019-04-22T11:36:30.789Z,25.40
2019-04-22T11:39:07.311Z,25.00
2019-04-22T11:41:36.258Z,23.60
2019-04-22T11:44:07.690Z,23.50
2019-04-22T11:46:39.216Z,24.10
2019-04-22T11:49:12.111Z,24.40
2019-04-22T11:51:43.375Z,24.90
2019-04-22T11:54:14.733Z,23.70
2019-04-22T11:56:47.220Z,24.50
2019-04-22T11:59:18.659Z,24.50
2019-04-22T12:01:51.024Z,24.50
2019-04-22T12:04:22.220Z,24.70
2019-04-22T12:06:54.024Z,23.90
2019-04-22T12:09:25.775Z,23.90
2019-04-22T12:11:58.104Z,23.60
2019-04-22T12:14:30.058Z,23.80
2019-04-22T12:17:01.581Z,25.00
2019-04-22T12:19:33.452Z,25.10
2019-04-22T12:22:07.028Z,26.10
2019-04-22T12:24:38.512Z,25.50
2019-04-22T12:27:10.517Z,25.30
2019-04-22T12:29:42.885Z,24.50
2019-04-22T12:32:13.976Z,24.90
2019-04-22T12:34:44.911Z,25.10
2019-04-22T12:37:28.461Z,25.30
2019-04-22T12:39:52.645Z,26.20
2019-04-22T12:42:21.482Z,27.00
2019-04-22T12:44:53.924Z,27.40
2019-04-22T12:47:26.281Z,26.90
2019-04-22T12:50:08.982Z,26.20
2019-04-22T12:52:36.959Z,26.80
2019-04-22T12:55:04.053Z,26.80
2019-04-22T12:57:36.744Z,26.60
2019-04-22T13:00:11.682Z,26.40
2019-04-22T13:02:43.101Z,25.70
2019-04-22T13:05:16.373Z,25.00
2019-04-22T13:07:47.505Z,24.00
2019-04-22T13:10:20.145Z,23.70
2019-04-22T13:12:51.291Z,22.90
2019-04-22T13:15:23.894Z,23.70
2019-04-22T13:18:06.070Z,23.70
2019-04-22T13:20:28.184Z,23.80
2019-04-22T13:22:59.457Z,23.90
2019-04-22T13:25:32.333Z,23.40
2019-04-22T13:28:03.085Z,22.50
2019-04-22T13:30:34.694Z,22.80
2019-04-22T13:33:07.092Z,23.00
2019-04-22T13:35:39.361Z,23.70
2019-04-22T13:38:11.122Z,23.10
2019-04-22T13:40:57.831Z,23.20
2019-04-22T13:43:16.827Z,23.70
2019-04-22T13:45:47.832Z,22.90
2019-04-22T13:48:38.724Z,22.60
2019-04-22T13:51:21.954Z,22.50
2019-04-22T13:54:17.497Z,23.70
2019-04-22T13:56:19.328Z,24.60
2019-04-22T13:58:46.149Z,23.10
2019-04-22T14:01:04.922Z,23.20
2019-04-22T14:03:54.566Z,23.10
2019-04-22T14:06:26.943Z,23.40
2019-04-22T14:09:18.569Z,22.90
2019-04-22T14:11:58.583Z,24.50
2019-04-22T14:14:24.036Z,23.80
2019-04-22T14:16:55.237Z,23.90
2019-04-22T14:19:27.758Z,23.70
2019-04-22T14:21:59.786Z,23.60
2019-04-22T14:24:30.978Z,23.50
2019-04-22T14:27:17.839Z,23.40
2019-04-22T14:29:35.726Z,22.90
2019-04-22T14:32:13.335Z,22.80
2019-04-22T14:34:39.486Z,23.30
2019-04-22T14:37:11.907Z,23.40
2019-04-22T14:39:44.068Z,23.10
2019-04-22T14:42:36.426Z,22.60
2019-04-22T14:47:47.593Z,23.90
2019-04-22T14:50:20.603Z,23.90
2019-04-22T14:52:45.933Z,23.70
2019-04-22T14:55:09.134Z,23.90
2019-04-22T14:57:34.285Z,24.00
2019-04-22T15:00:15.855Z,23.90
2019-04-22T15:02:47.943Z,23.30
2019-04-22T15:05:19.091Z,23.30
2019-04-22T15:07:50.079Z,24.20
2019-04-22T15:10:22.198Z,23.30
2019-04-22T15:12:56.737Z,23.50
2019-04-22T15:15:47.432Z,23.70
2019-04-22T15:18:33.572Z,24.70
2019-04-22T15:21:06.894Z,24.70
2019-04-22T15:23:38.584Z,24.20
2019-04-22T15:26:10.619Z,24.20
2019-04-22T15:28:41.847Z,23.90
2019-04-22T15:31:13.259Z,23.90
2019-04-22T15:33:47.975Z,24.60
2019-04-22T15:36:17.940Z,24.50
2019-04-22T15:38:49.249Z,24.80
2019-04-22T15:41:20.713Z,24.60
2019-04-22T15:43:52.110Z,24.60
2019-04-22T15:46:23.549Z,24.40
2019-04-22T15:48:55.957Z,24.70
2019-04-22T15:51:28.889Z,24.50
2019-04-22T15:54:01.361Z,24.20
2019-04-22T15:56:34.905Z,24.20
2019-04-22T15:59:27.336Z,24.90
2019-04-22T16:01:41.124Z,24.80
2019-04-22T16:04:12.746Z,25.30
2019-04-22T16:06:45.087Z,25.80
2019-04-22T16:09:17.345Z,25.50
2019-04-22T16:11:49.778Z,25.90
2019-04-22T16:14:23.976Z,25.90
2019-04-22T16:16:54.690Z,25.90
2019-04-22T16:19:27.262Z,25.80
2019-04-22T16:22:03.966Z,25.80
2019-04-22T16:24:36.174Z,26.30
2019-04-22T16:27:08.897Z,26.40
2019-04-22T16:29:41.190Z,26.70
2019-04-22T16:32:13.650Z,26.90
2019-04-22T16:34:45.782Z,26.70
2019-04-22T16:37:16.907Z,27.20
2019-04-22T16:39:50.287Z,27.10
2019-04-22T16:42:30.780Z,26.80
2019-04-22T16:44:53.466Z,27.00
2019-04-22T16:47:25.724Z,27.30
2019-04-22T16:49:57.450Z,27.30
2019-04-22T16:52:30.130Z,27.70
2019-04-22T16:55:01.299Z,27.70
2019-04-22T16:57:33.614Z,28.30
2019-04-22T17:00:08.896Z,29.20
2019-04-22T17:03:02.760Z,29.40
2019-04-22T17:05:33.786Z,31.00
2019-04-22T17:08:05.978Z,30.90
2019-04-22T17:10:37.835Z,31.50
2019-04-22T17:13:14.739Z,31.90
2019-04-22T17:15:41.705Z,32.70
2019-04-22T17:18:12.918Z,33.40
2019-04-22T17:20:44.672Z,33.90
2019-04-22T17:23:15.940Z,34.10
2019-04-22T17:25:48.213Z,34.80
2019-04-22T17:28:19.397Z,34.50
2019-04-22T17:30:51.869Z,35.00
2019-04-22T17:33:23.067Z,35.70
2019-04-22T17:35:54.937Z,35.70
2019-04-22T17:38:33.880Z,36.00
2019-04-22T17:41:11.536Z,36.30
2019-04-22T17:43:54.251Z,36.40
2019-04-22T17:46:27.853Z,37.40
2019-04-22T17:49:06.050Z,36.90
2019-04-22T17:51:36.646Z,37.70
2019-04-22T17:54:26.847Z,37.70
2019-04-22T17:56:43.724Z,37.90
2019-04-22T17:59:22.921Z,38.70
2019-04-22T18:01:43.930Z,39.20
2019-04-22T18:04:04.612Z,38.90
2019-04-22T18:07:03.820Z,39.50
2019-04-22T18:09:49.024Z,39.70
2019-04-22T18:12:11.837Z,40.10
2019-04-22T18:17:14.092Z,40.80
2019-04-22T18:19:44.891Z,41.00
2019-04-22T18:22:07.599Z,41.20
2019-04-22T18:24:47.428Z,41.30
2019-04-22T18:27:34.687Z,41.70
2019-04-22T18:29:51.749Z,42.10
2019-04-22T18:32:18.004Z,42.20
2019-04-22T18:34:50.386Z,42.60
2019-04-22T18:37:26.622Z,42.90
2019-04-22T18:40:08.528Z,43.10
2019-04-22T18:42:31.669Z,43.00
2019-04-22T18:45:34.471Z,43.30
2019-04-22T18:47:43.632Z,43.40
2019-04-22T18:50:24.683Z,43.80
2019-04-22T18:53:07.056Z,44.30
2019-04-22T18:55:33.854Z,43.80
2019-04-22T18:58:08.525Z,44.30
2019-04-22T19:00:41.834Z,44.50
2019-04-22T19:03:19.658Z,44.40
2019-04-22T19:06:22.383Z,44.70
2019-04-22T19:08:38.306Z,44.90
2019-04-22T19:11:13.537Z,45.60
2019-04-22T19:19:05.970Z,46.10
2019-04-22T19:21:19.770Z,46.30
2019-04-22T19:23:54.456Z,46.40
2019-04-22T19:26:38.368Z,46.30
2019-04-22T19:29:00.738Z,46.60
2019-04-22T19:31:36.876Z,46.70
2019-04-22T19:34:03.225Z,46.40
2019-04-22T19:36:40.812Z,46.70
2019-04-22T19:39:10.501Z,46.90
2019-04-22T19:41:53.666Z,46.60
2019-04-22T19:44:21.330Z,47.00
2019-04-22T19:47:06.405Z,47.40
2019-04-22T19:49:32.998Z,47.30
2019-04-22T19:52:05.999Z,47.70
2019-04-22T19:54:34.910Z,47.50
2019-04-22T19:56:51.706Z,48.60
2019-04-22T19:59:25.086Z,49.00
2019-04-22T20:02:22.150Z,48.90
2019-04-22T20:05:11.035Z,49.10
2019-04-22T20:07:38.645Z,49.80
2019-04-22T20:10:19.041Z,49.90
2019-04-22T20:12:51.796Z,50.20
2019-04-22T20:15:18.241Z,50.50
2019-04-22T20:18:14.490Z,50.60
2019-04-22T20:20:34.389Z,50.80
2019-04-22T20:23:00.318Z,51.10
2019-04-22T20:25:31.245Z,51.20
2019-04-22T20:28:17.163Z,51.70
2019-04-22T20:30:39.963Z,52.20
2019-04-22T20:33:08.404Z,52.10
2019-04-22T20:35:43.514Z,52.60
2019-04-22T20:38:18.255Z,53.20
2019-04-22T20:40:52.402Z,53.30
2019-04-22T20:43:29.286Z,53.50
2019-04-22T20:46:03.115Z,53.70
2019-04-22T20:48:28.721Z,54.00
2019-04-22T20:51:04.213Z,54.00
2019-04-22T20:53:37.952Z,54.50
2019-04-22T20:56:05.590Z,54.50
2019-04-22T20:58:40.332Z,54.90
2019-04-22T21:01:05.180Z,54.90
2019-04-22T21:03:33.628Z,54.90
2019-04-22T21:06:16.438Z,55.10
2019-04-22T21:08:54.889Z,55.50
2019-04-22T21:11:22.421Z,55.50
2019-04-22T21:13:56.069Z,55.50
2019-04-22T21:16:34.643Z,55.80
2019-04-22T21:18:51.606Z,55.90
2019-04-22T21:21:37.692Z,56.20
2019-04-22T21:23:59.663Z,56.40
2019-04-22T21:26:39.274Z,56.30
2019-04-22T21:29:13.082Z,56.70
2019-04-22T21:31:50.303Z,57.30
2019-04-22T21:34:19.210Z,57.40
2019-04-22T21:36:56.086Z,57.60
2019-04-22T21:39:26.328Z,57.90
2019-04-22T21:42:03.427Z,58.10
2019-04-22T21:44:30.696Z,58.70
2019-04-22T21:47:10.519Z,59.10
2019-04-22T21:49:45.884Z,59.50
2019-04-22T21:52:14.892Z,59.80
2019-04-22T21:54:47.061Z,60.20
2019-04-22T21:57:32.113Z,60.60
2019-04-22T22:00:17.043Z,61.00
2019-04-22T22:02:47.178Z,61.60
2019-04-22T22:05:08.109Z,62.40
2019-04-22T22:07:28.831Z,63.20
2019-04-22T22:10:16.953Z,63.70
2019-04-22T22:12:55.000Z,64.10
2019-04-22T22:15:27.552Z,65.00
2019-04-22T22:17:55.764Z,65.50
2019-04-22T22:20:25.416Z,66.30
2019-04-22T22:23:12.086Z,66.90
2019-04-22T22:25:34.929Z,67.20
2019-04-22T22:28:15.808Z,68.10
2019-04-22T22:30:49.765Z,69.00
2019-04-22T22:33:10.565Z,70.00
2019-04-22T22:35:45.641Z,70.50
2019-04-22T22:38:19.177Z,72.00
2019-04-22T22:40:34.663Z,73.50
2019-04-22T22:43:15.529Z,74.40
2019-04-22T22:45:44.734Z,75.70
2019-04-22T22:48:38.339Z,77.00
2019-04-22T22:51:00.442Z,79.10
2019-04-22T22:53:41.624Z,80.40
2019-04-22T22:56:14.048Z,81.80
2019-04-22T22:58:42.636Z,83.70
2019-04-22T23:01:10.226Z,85.10
2019-04-22T23:03:50.965Z,87.20
2019-04-22T23:06:31.011Z,88.70
2019-04-22T23:08:51.697Z,90.20
2019-04-22T23:11:40.417Z,90.70
2019-04-22T23:13:57.877Z,91.00
2019-04-22T23:16:18.165Z,91.80
2019-04-22T23:18:59.809Z,92.60
2019-04-22T23:21:38.790Z,93.40
2019-04-22T23:24:41.158Z,94.10
2019-04-22T23:27:11.433Z,95.00
2019-04-22T23:29:43.292Z,96.00
2019-04-22T23:32:22.725Z,97.10
2019-04-22T23:35:04.826Z,97.80
2019-04-22T23:37:29.163Z,98.70
2019-04-22T23:40:16.147Z,99.70
2019-04-22T23:42:44.616Z,99.90
2019-04-22T23:45:16.843Z,99.90
2019-04-22T23:47:41.071Z,99.90
2019-04-22T23:50:21.594Z,99.90
2019-04-22T23:52:53.335Z,99.90
2019-04-22T23:55:33.860Z,99.90
2019-04-22T23:58:07.947Z,99.90
